createdAt,value
2023-03-20T00:00:40.489Z,98407.97
2023-03-20T00:03:43.311Z,98415.75
2023-03-20T00:06:46.005Z,98415.75
2023-03-20T00:09:49.387Z,98416.81
2023-03-20T00:12:52.170Z,98415.75
2023-03-20T00:15:56.402Z,98410.91
2023-03-20T00:18:59.483Z,98416.53
2023-03-20T00:22:02.389Z,98407.69
2023-03-20T00:25:05.771Z,98414.41
2023-03-20T00:28:32.533Z,98407.44
2023-03-20T00:31:38.136Z,98411.19
2023-03-20T00:34:40.988Z,98416.03
2023-03-20T00:37:43.716Z,98422.47
2023-03-20T00:40:46.504Z,98424.31
2023-03-20T00:43:52.683Z,98420.84
2023-03-20T00:46:59.202Z,98417.63
2023-03-20T00:50:03.011Z,98425.38
2023-03-20T00:53:06.047Z,98426.47
2023-03-20T00:56:29.809Z,98420.84
2023-03-20T00:59:37.141Z,98430.78
2023-03-20T01:02:41.237Z,98430.78
2023-03-20T01:05:44.926Z,98433.97
2023-03-20T01:08:48.807Z,98432.38
2023-03-20T01:11:53.988Z,98432.13
2023-03-20T01:14:58.666Z,98434.25
2023-03-20T01:18:02.667Z,98424.34
2023-03-20T01:21:05.846Z,98432.88
2023-03-20T01:24:09.150Z,98426.44
2023-03-20T01:27:15.481Z,98422.94
2023-03-20T01:30:22.025Z,98432.88
2023-03-20T01:33:26.613Z,98432.38
2023-03-20T01:36:29.466Z,98436.09
2023-03-20T01:39:35.032Z,98433.97
2023-03-20T01:42:38.315Z,98436.13
2023-03-20T01:45:48.302Z,98446.03
2023-03-20T01:49:05.609Z,98438.81
2023-03-20T01:52:08.442Z,98444.44
2023-03-20T01:55:11.336Z,98439.88
2023-03-20T01:58:18.595Z,98444.69
2023-03-20T02:01:21.583Z,98439.88
2023-03-20T02:04:30.223Z,98449.25
2023-03-20T02:07:34.783Z,98453.53
2023-03-20T02:10:37.822Z,98452.72
2023-03-20T02:13:41.459Z,98461.88
2023-03-20T02:16:44.333Z,98461.06
2023-03-20T02:19:59.429Z,98453.78
2023-03-20T02:23:25.572Z,98455.41
2023-03-20T02:26:44.173Z,98461.06
2023-03-20T02:30:14.760Z,98457.28
2023-03-20T02:33:51.102Z,98464.78
2023-03-20T02:37:32.978Z,98466.94
2023-03-20T02:40:46.011Z,98469.34
2023-03-20T02:43:57.100Z,98470.16
2023-03-20T02:47:05.022Z,98457.31
2023-03-20T02:50:17.398Z,98462.69
2023-03-20T02:53:32.567Z,98461.31
2023-03-20T02:56:43.425Z,98462.91
2023-03-20T02:59:54.108Z,98463.19
2023-03-20T03:03:06.453Z,98471.25
2023-03-20T03:06:15.932Z,98466.13
2023-03-20T03:09:23.054Z,98464.25
2023-03-20T03:12:32.824Z,98469.34
2023-03-20T03:15:40.033Z,98471.47
2023-03-20T03:18:44.615Z,98474.41
2023-03-20T03:21:48.834Z,98472.53
2023-03-20T03:24:53.272Z,98477.63
2023-03-20T03:28:04.377Z,98483.53
2023-03-20T03:31:09.689Z,98481.94
2023-03-20T03:34:16.426Z,98475.75
2023-03-20T03:37:27.767Z,98483.78
2023-03-20T03:40:37.178Z,98485.97
2023-03-20T03:43:48.844Z,98485.69
2023-03-20T03:46:55.312Z,98482.75
2023-03-20T03:50:03.157Z,98490.50
2023-03-20T03:53:11.450Z,98488.88
2023-03-20T03:56:17.322Z,98484.59
2023-03-20T03:59:27.234Z,98491.88
2023-03-20T04:02:30.773Z,98492.41
2023-03-20T04:05:37.547Z,98491.06
2023-03-20T04:08:41.481Z,98492.38
2023-03-20T04:11:48.731Z,98506.84
2023-03-20T04:14:52.735Z,98510.06
2023-03-20T04:17:56.018Z,98504.44
2023-03-20T04:20:58.852Z,98492.38
2023-03-20T04:24:04.292Z,98499.88
2023-03-20T04:27:07.022Z,98495.56
2023-03-20T04:30:13.096Z,98489.38
2023-03-20T04:33:16.403Z,98494.16
2023-03-20T04:36:19.386Z,98489.88
2023-03-20T04:39:22.405Z,98487.75
2023-03-20T04:42:25.266Z,98486.97
2023-03-20T04:45:29.329Z,98492.34
2023-03-20T04:48:32.147Z,98493.69
2023-03-20T04:51:34.965Z,98500.94
2023-03-20T04:54:37.735Z,98506.84
2023-03-20T04:57:40.955Z,98503.88
2023-03-20T05:00:45.318Z,98511.59
2023-03-20T05:03:48.015Z,98513.25
2023-03-20T05:06:50.803Z,98514.00
2023-03-20T05:09:53.781Z,98522.28
2023-03-20T05:12:56.478Z,98526.31
2023-03-20T05:16:01.188Z,98527.41
2023-03-20T05:19:03.904Z,98528.69
2023-03-20T05:22:08.931Z,98530.53
2023-03-20T05:25:11.724Z,98536.19
2023-03-20T05:28:14.510Z,98537.22
2023-03-20T05:31:18.684Z,98524.63
2023-03-20T05:34:21.564Z,98521.28
2023-03-20T05:37:24.289Z,98512.69
2023-03-20T05:40:26.998Z,98523.41
2023-03-20T05:43:29.982Z,98525.53
2023-03-20T05:46:34.090Z,98532.28
2023-03-20T05:49:36.994Z,98525.56
2023-03-20T05:52:39.739Z,98533.34
2023-03-20T05:55:44.667Z,98533.06
2023-03-20T05:58:47.505Z,98536.59
2023-03-20T06:01:51.635Z,98541.13
2023-03-20T06:04:54.465Z,98546.50
2023-03-20T06:07:57.297Z,98550.78
2023-03-20T06:10:59.966Z,98549.72
2023-03-20T06:14:03.101Z,98554.53
2023-03-20T06:17:07.322Z,98560.72
2023-03-20T06:20:11.457Z,98559.38
2023-03-20T06:23:14.216Z,98564.47
2023-03-20T06:26:17.120Z,98554.56
2023-03-20T06:29:19.992Z,98555.91
2023-03-20T06:32:24.290Z,98545.50
2023-03-20T06:35:31.145Z,98555.97
2023-03-20T06:38:34.293Z,98540.97
2023-03-20T06:41:37.155Z,98532.13
2023-03-20T06:44:40.311Z,98541.78
2023-03-20T06:47:44.320Z,98539.94
2023-03-20T06:50:47.454Z,98547.19
2023-03-20T06:53:50.245Z,98545.63
2023-03-20T06:56:53.390Z,98538.38
2023-03-20T06:59:56.212Z,98543.75
2023-03-20T07:03:02.201Z,98553.69
2023-03-20T07:06:05.556Z,98558.78
2023-03-20T07:09:08.251Z,98559.84
2023-03-20T07:12:14.486Z,98555.53
2023-03-20T07:15:17.500Z,98561.72
2023-03-20T07:18:22.321Z,98566.84
2023-03-20T07:21:25.263Z,98579.44
2023-03-20T07:24:28.130Z,98584.28
2023-03-20T07:27:31.128Z,98584.84
2023-03-20T07:30:34.149Z,98582.69
2023-03-20T07:33:38.215Z,98576.50
2023-03-20T07:36:41.902Z,98572.72
2023-03-20T07:39:44.676Z,98578.41
2023-03-20T07:42:47.656Z,98582.69
2023-03-20T07:45:50.620Z,98584.81
2023-03-20T07:48:56.631Z,98580.53
2023-03-20T07:51:59.541Z,98584.56
2023-03-20T07:55:02.506Z,98589.13
2023-03-20T07:58:05.536Z,98581.56
2023-03-20T08:01:08.329Z,98574.56
2023-03-20T08:04:12.601Z,98582.56
2023-03-20T08:07:15.579Z,98580.94
2023-03-20T08:10:18.653Z,98571.78
2023-03-20T08:13:21.442Z,98573.91
2023-03-20T08:16:24.421Z,98577.97
2023-03-20T08:19:28.836Z,98584.44
2023-03-20T08:22:31.645Z,98580.69
2023-03-20T08:25:35.146Z,98588.22
2023-03-20T08:28:47.466Z,98592.53
2023-03-20T08:31:50.871Z,98584.16
2023-03-20T08:34:55.756Z,98590.28
2023-03-20T08:37:58.603Z,98582.75
2023-03-20T08:41:01.304Z,98576.53
2023-03-20T08:44:04.094Z,98584.78
2023-03-20T08:47:07.667Z,98580.41
2023-03-20T08:50:12.995Z,98578.75
2023-03-20T08:53:16.956Z,98571.97
2023-03-20T08:56:19.873Z,98578.94
2023-03-20T08:59:22.961Z,98570.78
2023-03-20T09:02:25.788Z,98577.41
2023-03-20T09:05:30.747Z,98585.00
2023-03-20T09:08:34.610Z,98582.88
2023-03-20T09:11:38.196Z,98585.28
2023-03-20T09:14:41.854Z,98590.59
2023-03-20T09:17:44.568Z,98590.50
2023-03-20T09:20:49.359Z,98589.25
2023-03-20T09:23:52.244Z,98586.53
2023-03-20T09:26:54.997Z,98581.38
2023-03-20T09:29:58.093Z,98584.00
2023-03-20T09:33:00.860Z,98586.44
2023-03-20T09:36:05.540Z,98580.34
2023-03-20T09:39:08.729Z,98585.88
2023-03-20T09:42:22.481Z,98583.34
2023-03-20T09:45:35.639Z,98589.13
2023-03-20T09:48:46.375Z,98586.38
2023-03-20T09:51:54.539Z,98589.22
2023-03-20T09:55:02.042Z,98593.16
2023-03-20T09:58:11.798Z,98598.56
2023-03-20T10:01:16.743Z,98583.91
2023-03-20T10:04:19.958Z,98590.69
2023-03-20T10:07:25.983Z,98590.66
2023-03-20T10:10:35.376Z,98592.19
2023-03-20T10:13:55.473Z,98603.91
2023-03-20T10:17:15.420Z,98598.22
2023-03-20T10:20:26.775Z,98599.38
2023-03-20T10:23:37.278Z,98608.13
2023-03-20T10:26:40.932Z,98606.63
2023-03-20T10:29:52.654Z,98604.81
2023-03-20T10:33:07.663Z,98603.00
2023-03-20T10:36:24.534Z,98600.31
2023-03-20T10:39:39.793Z,98599.28
2023-03-20T10:42:45.737Z,98590.38
2023-03-20T10:45:51.762Z,98598.91
2023-03-20T10:49:01.229Z,98595.63
2023-03-20T10:52:08.331Z,98598.22
2023-03-20T10:55:17.360Z,98589.25
2023-03-20T10:58:23.600Z,98587.53
2023-03-20T11:01:26.594Z,98589.22
2023-03-20T11:04:29.344Z,98584.88
2023-03-20T11:07:35.072Z,98595.69
2023-03-20T11:10:40.806Z,98578.97
2023-03-20T11:13:45.364Z,98587.28
2023-03-20T11:16:53.256Z,98586.19
2023-03-20T11:20:04.008Z,98587.28
2023-03-20T11:23:08.918Z,98594.38
2023-03-20T11:26:16.914Z,98591.78
2023-03-20T11:29:27.900Z,98591.28
2023-03-20T11:32:32.882Z,98592.34
2023-03-20T11:35:36.115Z,98588.06
2023-03-20T11:38:45.801Z,98591.34
2023-03-20T11:41:53.096Z,98586.47
2023-03-20T11:45:01.646Z,98577.88
2023-03-20T11:48:05.997Z,98577.59
2023-03-20T11:51:11.164Z,98584.53
2023-03-20T11:54:18.031Z,98582.28
2023-03-20T11:57:33.054Z,98572.97
2023-03-20T12:00:39.787Z,98573.06
2023-03-20T12:03:46.710Z,98576.69
2023-03-20T12:06:54.626Z,98571.91
2023-03-20T12:09:59.638Z,98567.50
2023-03-20T12:13:10.794Z,98574.41
2023-03-20T12:16:16.761Z,98567.53
2023-03-20T12:19:24.286Z,98569.44
2023-03-20T12:22:29.686Z,98571.34
2023-03-20T12:25:38.417Z,98552.88
2023-03-20T12:28:51.336Z,98553.72
2023-03-20T12:31:59.333Z,98543.16
2023-03-20T12:35:07.785Z,98550.78
2023-03-20T12:38:24.341Z,98536.47
2023-03-20T12:41:31.120Z,98533.78
2023-03-20T12:44:41.924Z,98544.47
2023-03-20T12:48:16.877Z,98537.63
2023-03-20T12:51:28.923Z,98536.88
2023-03-20T12:54:50.230Z,98542.06
2023-03-20T12:58:05.398Z,98529.03
2023-03-20T13:01:14.139Z,98529.22
2023-03-20T13:04:42.219Z,98528.59
2023-03-20T13:08:03.476Z,98512.34
2023-03-20T13:11:14.861Z,98516.31
2023-03-20T13:14:25.650Z,98509.59
2023-03-20T13:17:36.586Z,98515.16
2023-03-20T13:20:51.345Z,98507.25
2023-03-20T13:24:06.116Z,98506.44
2023-03-20T13:27:23.124Z,98499.25
2023-03-20T13:30:31.186Z,98495.63
2023-03-20T13:33:47.682Z,98492.88
2023-03-20T13:37:16.129Z,98481.25
2023-03-20T13:40:28.584Z,98485.50
2023-03-20T13:43:36.145Z,98477.38
2023-03-20T13:46:42.580Z,98470.97
2023-03-20T13:49:53.661Z,98466.97
2023-03-20T13:53:02.748Z,98468.88
2023-03-20T13:56:13.453Z,98463.63
2023-03-20T13:59:35.630Z,98467.38
2023-03-20T14:02:53.023Z,98461.84
2023-03-20T14:05:57.412Z,98462.13
2023-03-20T14:09:00.971Z,98458.13
2023-03-20T14:12:07.514Z,98458.94
2023-03-20T14:15:13.395Z,98458.72
2023-03-20T14:18:18.597Z,98449.09
2023-03-20T14:21:25.433Z,98447.16
2023-03-20T14:24:29.191Z,98454.88
2023-03-20T14:27:44.578Z,98449.09
2023-03-20T14:30:49.032Z,98453.34
2023-03-20T14:34:00.493Z,98457.78
2023-03-20T14:37:06.490Z,98452.06
2023-03-20T14:40:17.861Z,98446.97
2023-03-20T14:43:39.289Z,98448.47
2023-03-20T14:46:52.573Z,98444.53
2023-03-20T14:50:03.582Z,98445.97
2023-03-20T14:53:17.182Z,98444.00
2023-03-20T14:56:28.941Z,98439.31
2023-03-20T14:59:33.512Z,98442.88
2023-03-20T15:02:37.376Z,98445.69
2023-03-20T15:05:41.160Z,98441.00
2023-03-20T15:08:48.303Z,98441.91
2023-03-20T15:11:52.624Z,98433.00
2023-03-20T15:14:59.155Z,98439.41
2023-03-20T15:18:08.499Z,98436.16
2023-03-20T15:21:15.953Z,98431.94
2023-03-20T15:24:23.334Z,98425.16
2023-03-20T15:27:29.623Z,98429.88
2023-03-20T15:30:34.969Z,98428.94
2023-03-20T15:33:42.753Z,98426.16
2023-03-20T15:36:45.533Z,98435.00
2023-03-20T15:39:51.967Z,98435.72
2023-03-20T15:42:55.392Z,98435.34
2023-03-20T15:46:18.422Z,98444.13
2023-03-20T15:49:23.235Z,98440.31
2023-03-20T15:52:32.220Z,98441.44
2023-03-20T15:55:36.570Z,98441.44
2023-03-20T15:58:39.919Z,98442.47
2023-03-20T16:01:42.969Z,98445.16
2023-03-20T16:04:49.007Z,98434.47
2023-03-20T16:07:51.621Z,98439.84
2023-03-20T16:10:59.407Z,98448.63
2023-03-20T16:14:02.414Z,98439.69
2023-03-20T16:17:06.166Z,98442.59
2023-03-20T16:20:14.400Z,98438.88
2023-03-20T16:23:28.298Z,98442.38
2023-03-20T16:26:32.495Z,98430.72
2023-03-20T16:29:36.114Z,98430.34
2023-03-20T16:32:40.372Z,98440.69
2023-03-20T16:35:45.999Z,98436.38
2023-03-20T16:38:57.442Z,98429.81
2023-03-20T16:42:12.397Z,98431.69
2023-03-20T16:45:25.083Z,98433.88
2023-03-20T16:48:32.426Z,98436.69
2023-03-20T16:51:35.184Z,98430.38
2023-03-20T16:54:38.049Z,98434.56
2023-03-20T16:57:43.128Z,98426.81
2023-03-20T17:00:51.652Z,98423.34
2023-03-20T17:03:56.724Z,98427.72
2023-03-20T17:07:01.578Z,98425.06
2023-03-20T17:10:18.439Z,98431.88
2023-03-20T17:13:22.440Z,98436.22
2023-03-20T17:16:26.059Z,98433.59
2023-03-20T17:19:28.694Z,98429.03
2023-03-20T17:22:33.435Z,98423.94
2023-03-20T17:25:36.085Z,98430.44
2023-03-20T17:28:41.701Z,98437.47
2023-03-20T17:31:44.359Z,98432.38
2023-03-20T17:34:47.735Z,98437.53
2023-03-20T17:37:50.468Z,98448.31
2023-03-20T17:40:53.677Z,98451.81
2023-03-20T17:43:58.038Z,98449.66
2023-03-20T17:47:02.302Z,98454.50
2023-03-20T17:50:05.761Z,98452.63
2023-03-20T17:53:13.459Z,98461.28
2023-03-20T17:56:17.275Z,98464.50
2023-03-20T17:59:21.220Z,98467.78
2023-03-20T18:02:24.056Z,98462.75
2023-03-20T18:05:28.600Z,98472.13
2023-03-20T18:08:31.590Z,98468.66
2023-03-20T18:11:34.508Z,98477.53
2023-03-20T18:14:39.304Z,98467.31
2023-03-20T18:17:41.913Z,98481.88
2023-03-20T18:20:45.532Z,98481.63
2023-03-20T18:23:48.169Z,98483.56
2023-03-20T18:26:51.152Z,98478.41
2023-03-20T18:29:55.206Z,98491.34
2023-03-20T18:32:57.883Z,98486.81
2023-03-20T18:36:00.755Z,98487.91
2023-03-20T18:39:04.856Z,98487.63
2023-03-20T18:42:07.944Z,98485.75
2023-03-20T18:45:12.976Z,98487.13
2023-03-20T18:48:16.058Z,98484.69
2023-03-20T18:51:20.308Z,98478.22
2023-03-20T18:54:22.979Z,98480.38
2023-03-20T18:57:26.083Z,98477.97
2023-03-20T19:00:33.799Z,98480.38
2023-03-20T19:03:39.289Z,98485.75
2023-03-20T19:06:41.950Z,98485.50
2023-03-20T19:09:44.689Z,98489.31
2023-03-20T19:12:47.374Z,98485.56
2023-03-20T19:15:51.619Z,98481.22
2023-03-20T19:18:55.817Z,98477.19
2023-03-20T19:21:58.453Z,98474.84
2023-03-20T19:25:01.048Z,98481.81
2023-03-20T19:28:05.269Z,98481.00
2023-03-20T19:31:10.771Z,98476.69
2023-03-20T19:34:44.384Z,98485.00
2023-03-20T19:37:36.027Z,98482.03
2023-03-20T19:40:42.972Z,98485.25
2023-03-20T19:43:52.481Z,98493.03
2023-03-20T19:46:57.730Z,98476.13
2023-03-20T19:50:00.348Z,98486.63
2023-03-20T19:53:05.812Z,98480.94
2023-03-20T19:56:08.768Z,98472.34
2023-03-20T19:59:12.622Z,98474.78
2023-03-20T20:02:18.287Z,98467.53
2023-03-20T20:05:26.239Z,98466.44
2023-03-20T20:08:44.831Z,98470.75
2023-03-20T20:11:50.361Z,98463.75
2023-03-20T20:14:53.048Z,98467.00
2023-03-20T20:17:57.030Z,98467.53
2023-03-20T20:22:00.015Z,98468.66
2023-03-20T20:24:22.636Z,98472.44
2023-03-20T20:27:25.439Z,98465.75
2023-03-20T20:30:28.035Z,98461.19
2023-03-20T20:33:34.405Z,98461.19
2023-03-20T20:40:00.282Z,98463.34
2023-03-20T20:43:09.721Z,98464.97
2023-03-20T20:46:13.227Z,98468.22
2023-03-20T20:49:19.871Z,98471.97
2023-03-20T20:52:23.042Z,98477.34
2023-03-20T20:55:26.185Z,98485.94
2023-03-20T20:58:28.837Z,98478.97
2023-03-20T21:01:31.573Z,98480.88
2023-03-20T21:04:35.694Z,98476.88
2023-03-20T21:07:38.604Z,98476.56
2023-03-20T21:10:41.280Z,98479.50
2023-03-20T21:13:43.926Z,98476.56
2023-03-20T21:16:46.619Z,98477.38
2023-03-20T21:19:51.056Z,98477.66
2023-03-20T21:22:53.733Z,98477.09
2023-03-20T21:25:56.343Z,98471.19
2023-03-20T21:28:58.989Z,98473.59
2023-03-20T21:32:01.659Z,98472.53
2023-03-20T21:35:09.220Z,98479.25
2023-03-20T21:41:34.940Z,98470.13
2023-03-20T21:48:39.410Z,98470.13
2023-03-20T21:52:30.518Z,98468.75
2023-03-20T21:58:48.821Z,98463.94
2023-03-20T22:09:20.185Z,98475.25
2023-03-20T22:12:30.224Z,98471.78
2023-03-20T22:15:46.739Z,98475.28
2023-03-20T22:19:45.980Z,98467.22
2023-03-20T22:29:32.742Z,98466.69
2023-03-20T22:33:03.386Z,98472.59
2023-03-20T22:39:40.873Z,98466.44
2023-03-20T22:46:03.148Z,98469.13
2023-03-20T22:49:08.637Z,98467.50
2023-03-20T22:52:24.891Z,98461.88
2023-03-20T22:55:32.219Z,98472.06
2023-03-20T22:58:36.315Z,98472.63
2023-03-20T23:01:39.090Z,98460.81
2023-03-20T23:04:42.039Z,98466.72
2023-03-20T23:07:44.869Z,98459.72
2023-03-20T23:10:49.669Z,98451.94
2023-03-20T23:13:54.249Z,98444.16
2023-03-20T23:16:57.092Z,98451.94
2023-03-20T23:20:10.959Z,98441.22
2023-03-20T23:23:14.912Z,98441.47
2023-03-20T23:26:20.978Z,98451.44
2023-03-20T23:29:25.233Z,98447.66
2023-03-20T23:32:28.311Z,98444.16
2023-03-20T23:35:31.083Z,98442.28
2023-03-20T23:38:34.052Z,98439.88
2023-03-20T23:45:13.179Z,98435.59
2023-03-20T23:48:22.344Z,98432.91
2023-03-20T23:51:25.151Z,98427.53
2023-03-20T23:54:27.944Z,98429.97
2023-03-20T23:57:30.722Z,98427.00
